createdAt,value
2022-11-03T00:00:12.988Z,101654.06
2022-11-03T00:02:39.532Z,101654.84
2022-11-03T00:05:26.425Z,101649.63
2022-11-03T00:07:52.754Z,101647.38
2022-11-03T00:10:19.114Z,101644.63
2022-11-03T00:12:45.430Z,101640.06
2022-11-03T00:15:11.864Z,101647.47
2022-11-03T00:17:38.200Z,101633.88
2022-11-03T00:20:05.149Z,101631.03
2022-11-03T00:22:33.141Z,101630.28
2022-11-03T00:24:59.642Z,101623.75
2022-11-03T00:27:25.963Z,101624.66
2022-11-03T00:29:52.308Z,101624.41
2022-11-03T00:32:18.626Z,101616.13
2022-11-03T00:34:44.975Z,101617.91
2022-11-03T00:37:11.286Z,101612.16
2022-11-03T00:39:37.652Z,101607.03
2022-11-03T00:42:04.067Z,101607.66
2022-11-03T00:44:30.427Z,101613.22
2022-11-03T00:46:56.833Z,101605.66
2022-11-03T00:49:23.580Z,101603.66
2022-11-03T00:51:49.897Z,101601.03
2022-11-03T00:54:16.374Z,101594.81
2022-11-03T00:56:44.196Z,101602.16
2022-11-03T00:59:10.744Z,101592.25
2022-11-03T01:01:47.191Z,101588.84
2022-11-03T01:04:34.529Z,101586.16
2022-11-03T01:07:02.634Z,101587.28
2022-11-03T01:09:40.449Z,101585.81
2022-11-03T01:12:08.558Z,101577.69
2022-11-03T01:14:42.292Z,101589.38
2022-11-03T01:17:20.245Z,101586.41
2022-11-03T01:19:47.020Z,101578.97
2022-11-03T01:22:14.338Z,101576.97
2022-11-03T01:24:42.070Z,101574.22
2022-11-03T01:27:10.224Z,101577.19
2022-11-03T01:29:36.608Z,101568.66
2022-11-03T01:32:02.938Z,101564.00
2022-11-03T01:34:29.931Z,101542.41
2022-11-03T01:36:56.287Z,101541.94
2022-11-03T01:39:22.737Z,101534.44
2022-11-03T01:41:51.933Z,101536.97
2022-11-03T01:44:18.213Z,101540.97
2022-11-03T01:47:01.645Z,101532.91
2022-11-03T01:49:36.959Z,101530.44
2022-11-03T01:52:21.453Z,101521.50
2022-11-03T01:54:54.129Z,101507.28
2022-11-03T01:57:27.858Z,101499.66
2022-11-03T01:59:58.399Z,101507.72
2022-11-03T02:02:26.662Z,101505.50
2022-11-03T02:04:54.414Z,101523.88
2022-11-03T02:07:36.714Z,101519.84
2022-11-03T02:10:03.515Z,101522.34
2022-11-03T02:12:30.677Z,101520.59
2022-11-03T02:15:05.594Z,101515.34
2022-11-03T02:17:33.442Z,101514.56
2022-11-03T02:20:05.822Z,101513.22
2022-11-03T02:22:50.829Z,101505.44
2022-11-03T02:25:32.274Z,101500.44
2022-11-03T02:28:00.286Z,101486.88
2022-11-03T02:30:38.089Z,101480.63
2022-11-03T02:33:15.325Z,101473.75
2022-11-03T02:36:06.993Z,101487.44
2022-11-03T02:38:39.202Z,101480.03
2022-11-03T02:41:08.407Z,101474.16
2022-11-03T02:43:35.157Z,101463.81
2022-11-03T02:46:04.973Z,101465.16
2022-11-03T02:48:32.126Z,101455.00
2022-11-03T02:50:58.569Z,101458.66
2022-11-03T02:53:28.206Z,101449.00
2022-11-03T02:56:01.516Z,101446.91
2022-11-03T02:58:39.911Z,101433.91
2022-11-03T03:01:16.760Z,101438.22
2022-11-03T03:03:55.059Z,101427.41
2022-11-03T03:06:26.585Z,101423.06
2022-11-03T03:09:03.357Z,101426.59
2022-11-03T03:11:39.574Z,101426.53
2022-11-03T03:14:11.142Z,101418.16
2022-11-03T03:16:59.173Z,101418.38
2022-11-03T03:19:48.359Z,101420.53
2022-11-03T03:22:24.217Z,101423.88
2022-11-03T03:25:02.421Z,101414.09
2022-11-03T03:27:34.113Z,101415.97
2022-11-03T03:30:07.889Z,101427.03
2022-11-03T03:32:38.312Z,101421.38
2022-11-03T03:35:11.027Z,101412.84
2022-11-03T03:37:40.903Z,101411.13
2022-11-03T03:40:11.617Z,101406.59
2022-11-03T03:42:40.222Z,101402.03
2022-11-03T03:45:09.671Z,101409.88
2022-11-03T03:47:36.291Z,101402.03
2022-11-03T03:50:03.171Z,101403.81
2022-11-03T03:52:30.354Z,101396.78
2022-11-03T03:54:56.847Z,101393.19
2022-11-03T03:57:25.025Z,101393.72
2022-11-03T03:59:51.773Z,101388.94
2022-11-03T04:02:18.262Z,101399.03
2022-11-03T04:04:44.918Z,101384.88
2022-11-03T04:07:29.587Z,101382.84
2022-11-03T04:09:55.929Z,101384.66
2022-11-03T04:12:40.732Z,101376.03
2022-11-03T04:15:28.269Z,101373.78
2022-11-03T04:18:13.001Z,101374.84
2022-11-03T04:20:57.692Z,101377.91
2022-11-03T04:23:24.065Z,101366.09
2022-11-03T04:25:54.581Z,101367.97
2022-11-03T04:28:20.983Z,101380.75
2022-11-03T04:30:47.424Z,101380.84
2022-11-03T04:33:22.802Z,101383.16
2022-11-03T04:35:49.764Z,101380.53
2022-11-03T04:38:16.417Z,101370.91
2022-11-03T04:40:47.093Z,101371.50
2022-11-03T04:43:19.062Z,101369.56
2022-11-03T04:45:46.858Z,101374.97
2022-11-03T04:48:24.187Z,101366.25
2022-11-03T04:50:54.436Z,101366.84
2022-11-03T04:53:22.283Z,101366.78
2022-11-03T04:55:51.758Z,101367.72
2022-11-03T04:58:26.416Z,101371.09
2022-11-03T05:00:56.619Z,101367.91
2022-11-03T05:03:30.572Z,101370.53
2022-11-03T05:05:57.468Z,101364.78
2022-11-03T05:08:25.958Z,101363.22
2022-11-03T05:10:52.571Z,101353.91
2022-11-03T05:13:25.470Z,101353.41
2022-11-03T05:15:54.233Z,101358.50
2022-11-03T05:18:25.397Z,101348.25
2022-11-03T05:20:57.144Z,101347.72
2022-11-03T05:23:23.918Z,101345.16
2022-11-03T05:25:53.584Z,101338.66
2022-11-03T05:28:28.627Z,101346.78
2022-11-03T05:30:55.419Z,101336.47
2022-11-03T05:33:32.318Z,101334.56
2022-11-03T05:36:03.214Z,101319.50
2022-11-03T05:38:33.148Z,101321.81
2022-11-03T05:41:00.105Z,101329.41
2022-11-03T05:43:28.050Z,101315.91
2022-11-03T05:45:58.648Z,101313.28
2022-11-03T05:48:36.573Z,101312.56
2022-11-03T05:51:14.646Z,101310.28
2022-11-03T05:53:45.118Z,101305.75
2022-11-03T05:56:21.894Z,101303.06
2022-11-03T05:58:50.453Z,101303.56
2022-11-03T06:01:23.384Z,101290.69
2022-11-03T06:03:49.792Z,101297.59
2022-11-03T06:06:20.285Z,101292.63
2022-11-03T06:08:47.431Z,101290.22
2022-11-03T06:11:26.727Z,101294.41
2022-11-03T06:13:57.077Z,101292.63
2022-11-03T06:16:37.746Z,101286.81
2022-11-03T06:19:24.369Z,101282.63
2022-11-03T06:21:53.483Z,101279.66
2022-11-03T06:24:23.013Z,101280.53
2022-11-03T06:26:51.126Z,101276.94
2022-11-03T06:29:19.802Z,101274.59
2022-11-03T06:31:50.315Z,101266.84
2022-11-03T06:34:30.935Z,101265.09
2022-11-03T06:36:58.940Z,101265.19
2022-11-03T06:39:25.306Z,101258.50
2022-11-03T06:41:52.372Z,101264.88
2022-11-03T06:44:29.764Z,101259.38
2022-11-03T06:47:00.213Z,101249.94
2022-11-03T06:49:35.236Z,101255.19
2022-11-03T06:52:28.566Z,101251.28
2022-11-03T06:55:12.159Z,101255.56
2022-11-03T06:57:45.515Z,101248.19
2022-11-03T07:00:40.116Z,101244.97
2022-11-03T07:03:13.781Z,101251.91
2022-11-03T07:05:40.737Z,101256.25
2022-11-03T07:08:19.366Z,101241.59
2022-11-03T07:10:45.822Z,101247.75
2022-11-03T07:13:20.018Z,101241.81
2022-11-03T07:15:46.464Z,101245.41
2022-11-03T07:18:35.587Z,101253.13
2022-11-03T07:21:33.073Z,101244.06
2022-11-03T07:24:02.133Z,101240.50
2022-11-03T07:26:28.909Z,101240.38
2022-11-03T07:28:55.416Z,101241.41
2022-11-03T07:31:26.190Z,101238.75
2022-11-03T07:33:58.290Z,101236.16
2022-11-03T07:36:27.956Z,101236.06
2022-11-03T07:38:56.541Z,101227.75
2022-11-03T07:41:32.816Z,101228.09
2022-11-03T07:44:01.250Z,101228.16
2022-11-03T07:46:27.828Z,101223.81
2022-11-03T07:48:55.857Z,101228.72
2022-11-03T07:51:25.119Z,101221.41
2022-11-03T07:53:55.112Z,101218.84
2022-11-03T07:56:25.271Z,101214.69
2022-11-03T07:59:27.019Z,101210.50
2022-11-03T08:01:55.657Z,101197.59
2022-11-03T08:04:25.753Z,101202.31
2022-11-03T08:06:52.376Z,101192.88
2022-11-03T08:09:19.286Z,101189.69
2022-11-03T08:11:46.129Z,101184.69
2022-11-03T08:14:13.059Z,101187.34
2022-11-03T08:16:39.832Z,101181.53
2022-11-03T08:19:06.735Z,101180.75
2022-11-03T08:21:33.078Z,101181.53
2022-11-03T08:23:59.424Z,101173.88
2022-11-03T08:26:25.849Z,101175.13
2022-11-03T08:28:52.490Z,101176.97
2022-11-03T08:31:18.953Z,101177.75
2022-11-03T08:33:45.393Z,101176.25
2022-11-03T08:36:12.743Z,101178.75
2022-11-03T08:38:39.264Z,101172.78
2022-11-03T08:41:05.713Z,101167.69
2022-11-03T08:43:32.079Z,101168.63
2022-11-03T08:46:06.787Z,101163.53
2022-11-03T08:48:42.048Z,101164.50
2022-11-03T08:51:10.321Z,101152.34
2022-11-03T08:53:38.366Z,101149.16
2022-11-03T08:56:10.242Z,101144.97
2022-11-03T08:58:38.989Z,101142.53
2022-11-03T09:01:05.448Z,101135.81
2022-11-03T09:03:31.803Z,101137.63
2022-11-03T09:05:58.575Z,101132.53
2022-11-03T09:11:11.221Z,101140.69
2022-11-03T09:13:37.550Z,101127.06
2022-11-03T09:16:04.079Z,101123.56
2022-11-03T09:18:30.409Z,101126.16
2022-11-03T09:20:56.761Z,101118.50
2022-11-03T09:23:23.074Z,101129.84
2022-11-03T09:25:49.509Z,101121.38
2022-11-03T09:28:15.827Z,101128.28
2022-11-03T09:30:42.176Z,101121.44
2022-11-03T09:33:08.505Z,101131.09
2022-11-03T09:35:34.854Z,101123.34
2022-11-03T09:38:01.208Z,101120.88
2022-11-03T09:40:27.546Z,101133.81
2022-11-03T09:42:54.119Z,101112.47
2022-11-03T09:45:20.458Z,101115.09
2022-11-03T09:47:47.230Z,101109.94
2022-11-03T09:50:17.077Z,101098.78
2022-11-03T09:52:48.752Z,101100.56
2022-11-03T09:55:23.270Z,101100.63
2022-11-03T09:57:52.448Z,101086.16
2022-11-03T10:00:20.869Z,101087.16
2022-11-03T10:02:48.208Z,101088.16
2022-11-03T10:05:20.449Z,101081.31
2022-11-03T10:07:46.850Z,101078.81
2022-11-03T10:10:20.541Z,101078.00
2022-11-03T10:12:49.355Z,101069.38
2022-11-03T10:15:17.657Z,101072.06
2022-11-03T10:17:45.475Z,101078.28
2022-11-03T10:20:14.085Z,101066.34
2022-11-03T10:22:42.397Z,101062.06
2022-11-03T10:25:37.725Z,101068.88
2022-11-03T10:28:16.208Z,101065.50
2022-11-03T10:33:40.995Z,101057.75
2022-11-03T10:36:23.484Z,101061.97
2022-11-03T10:38:49.806Z,101059.41
2022-11-03T10:41:18.356Z,101051.66
2022-11-03T10:43:59.098Z,101050.81
2022-11-03T10:49:14.954Z,101035.44
2022-11-03T10:51:42.890Z,101035.38
2022-11-03T10:54:17.308Z,101032.06
2022-11-03T10:56:45.820Z,101021.78
2022-11-03T10:59:20.737Z,101027.97
2022-11-03T11:01:47.662Z,101020.22
2022-11-03T11:04:18.765Z,101015.19
2022-11-03T11:06:46.374Z,101015.94
2022-11-03T11:09:17.455Z,101008.22
2022-11-03T11:12:17.420Z,101004.00
2022-11-03T11:15:01.354Z,101006.78
2022-11-03T11:17:41.465Z,100996.41
2022-11-03T11:20:21.169Z,100989.63
2022-11-03T11:22:48.910Z,100979.31
2022-11-03T11:25:17.955Z,100971.59
2022-11-03T11:27:44.261Z,100971.72
2022-11-03T11:30:20.010Z,100967.44
2022-11-03T11:32:46.431Z,100966.63
2022-11-03T11:35:17.468Z,100964.06
2022-11-03T11:37:44.283Z,100953.63
2022-11-03T11:40:14.664Z,100957.16
2022-11-03T11:43:02.792Z,100956.22
2022-11-03T11:46:06.843Z,100950.25
2022-11-03T11:48:34.179Z,100944.13
2022-11-03T11:51:02.077Z,100942.41
2022-11-03T11:53:33.842Z,100936.34
2022-11-03T11:56:02.274Z,100931.16
2022-11-03T11:58:42.405Z,100923.47
2022-11-03T12:01:33.805Z,100919.09
2022-11-03T12:04:14.673Z,100916.56
2022-11-03T12:06:42.269Z,100905.31
2022-11-03T12:09:20.525Z,100895.72
2022-11-03T12:11:55.653Z,100899.16
2022-11-03T12:14:28.340Z,100888.78
2022-11-03T12:16:56.206Z,100889.63
2022-11-03T12:19:54.153Z,100880.13
2022-11-03T12:22:23.255Z,100874.03
2022-11-03T12:24:52.097Z,100864.56
2022-11-03T12:27:24.754Z,100862.00
2022-11-03T12:29:56.528Z,100852.50
2022-11-03T12:32:33.849Z,100854.38
2022-11-03T12:35:02.629Z,100847.44
2022-11-03T12:37:29.097Z,100837.91
2022-11-03T12:39:55.503Z,100832.72
2022-11-03T12:42:23.046Z,100826.66
2022-11-03T12:44:49.424Z,100819.75
2022-11-03T12:47:15.769Z,100817.13
2022-11-03T12:49:42.087Z,100815.41
2022-11-03T12:52:09.549Z,100811.03
2022-11-03T12:54:35.925Z,100803.16
2022-11-03T12:57:02.323Z,100803.13
2022-11-03T12:59:28.729Z,100803.16
2022-11-03T13:01:55.311Z,100804.91
2022-11-03T13:04:21.703Z,100799.69
2022-11-03T13:06:48.080Z,100789.31
2022-11-03T13:09:14.434Z,100797.94
2022-11-03T13:11:59.790Z,100795.34
2022-11-03T13:14:26.596Z,100797.16
2022-11-03T13:16:53.144Z,100787.63
2022-11-03T13:19:19.490Z,100788.47
2022-11-03T13:21:45.853Z,100785.03
2022-11-03T13:24:12.182Z,100778.03
2022-11-03T13:26:38.541Z,100766.72
2022-11-03T13:29:04.894Z,100760.69
2022-11-03T13:31:31.361Z,100759.91
2022-11-03T13:33:57.699Z,100749.47
2022-11-03T13:36:24.136Z,100748.59
2022-11-03T13:38:50.510Z,100747.69
2022-11-03T13:41:17.332Z,100744.19
2022-11-03T13:43:43.692Z,100732.03
2022-11-03T13:46:10.134Z,100734.66
2022-11-03T13:51:26.103Z,100738.97
2022-11-03T13:59:25.585Z,100728.53
2022-11-03T14:07:10.912Z,100721.44
2022-11-03T14:12:27.297Z,100728.44
2022-11-03T14:14:53.732Z,100725.78
2022-11-03T14:17:20.087Z,100731.78
2022-11-03T14:19:52.062Z,100722.31
2022-11-03T14:22:20.369Z,100718.78
2022-11-03T14:24:46.820Z,100707.53
2022-11-03T14:27:13.257Z,100707.59
2022-11-03T14:29:39.732Z,100702.34
2022-11-03T14:32:06.177Z,100695.44
2022-11-03T14:34:32.593Z,100700.53
2022-11-03T14:36:59.010Z,100690.25
2022-11-03T14:39:25.357Z,100688.31
2022-11-03T14:42:03.889Z,100674.44
2022-11-03T14:44:35.163Z,100670.97
2022-11-03T14:47:03.099Z,100670.94
2022-11-03T14:49:31.206Z,100643.31
2022-11-03T14:51:59.488Z,100641.53
2022-11-03T14:54:26.530Z,100649.34
2022-11-03T14:56:53.830Z,100638.13
2022-11-03T14:59:21.040Z,100631.13
2022-11-03T15:01:49.405Z,100622.47
2022-11-03T15:04:15.855Z,100618.16
2022-11-03T15:06:42.269Z,100625.09
2022-11-03T15:11:41.337Z,100635.53
2022-11-03T15:14:08.461Z,100636.25
2022-11-03T15:16:36.827Z,100628.53
2022-11-03T15:19:04.306Z,100622.44
2022-11-03T15:21:30.931Z,100605.94
2022-11-03T15:26:43.747Z,100566.19
2022-11-03T15:29:10.067Z,100548.88
2022-11-03T15:31:36.507Z,100548.03
2022-11-03T15:34:06.014Z,100534.16
2022-11-03T15:36:35.178Z,100524.72
2022-11-03T15:39:01.505Z,100529.03
2022-11-03T15:41:27.871Z,100517.81
2022-11-03T15:43:54.197Z,100524.78
2022-11-03T15:46:20.699Z,100523.06
2022-11-03T15:48:48.672Z,100517.81
2022-11-03T15:51:15.339Z,100510.03
2022-11-03T15:53:41.811Z,100504.84
2022-11-03T15:56:08.422Z,100501.44
2022-11-03T15:58:34.863Z,100503.06
2022-11-03T16:01:05.143Z,100502.22
2022-11-03T16:03:32.265Z,100511.72
2022-11-03T16:05:58.904Z,100497.06
2022-11-03T16:08:25.428Z,100497.88
2022-11-03T16:10:57.306Z,100493.56
2022-11-03T16:13:24.755Z,100483.25
2022-11-03T16:15:51.663Z,100485.84
2022-11-03T16:18:18.087Z,100478.94
2022-11-03T16:20:44.489Z,100465.94
2022-11-03T16:23:10.835Z,100468.50
2022-11-03T16:25:37.367Z,100467.66
2022-11-03T16:28:04.025Z,100473.72
2022-11-03T16:30:30.634Z,100457.31
2022-11-03T16:32:56.940Z,100461.63
2022-11-03T16:35:23.437Z,100455.56
2022-11-03T16:37:52.978Z,100436.53
2022-11-03T16:40:20.161Z,100433.09
2022-11-03T16:42:47.531Z,100426.97
2022-11-03T16:45:19.741Z,100425.25
2022-11-03T16:47:47.443Z,100430.44
2022-11-03T16:50:16.638Z,100426.13
2022-11-03T16:52:43.704Z,100421.78
2022-11-03T16:55:13.237Z,100423.50
2022-11-03T16:57:39.729Z,100422.69
2022-11-03T17:00:08.879Z,100427.88
2022-11-03T17:02:35.245Z,100420.03
2022-11-03T17:05:01.613Z,100426.97
2022-11-03T17:07:28.053Z,100419.19
2022-11-03T17:09:54.398Z,100425.25
2022-11-03T17:12:20.761Z,100426.03
2022-11-03T17:14:49.059Z,100419.13
2022-11-03T17:17:17.819Z,100412.19
2022-11-03T17:19:44.160Z,100413.09
2022-11-03T17:22:10.528Z,100406.16
2022-11-03T17:24:36.851Z,100384.53
2022-11-03T17:27:04.969Z,100384.50
2022-11-03T17:29:37.607Z,100381.91
2022-11-03T17:32:07.699Z,100373.25
2022-11-03T17:34:34.281Z,100378.47
2022-11-03T17:37:00.876Z,100382.81
2022-11-03T17:39:34.277Z,100375.91
2022-11-03T17:42:19.263Z,100375.88
2022-11-03T17:44:47.609Z,100362.91
2022-11-03T17:47:15.611Z,100366.34
2022-11-03T17:49:43.095Z,100362.91
2022-11-03T17:52:27.795Z,100355.94
2022-11-03T17:54:57.505Z,100356.84
2022-11-03T17:57:25.667Z,100345.56
2022-11-03T17:59:57.108Z,100340.41
2022-11-03T18:02:26.272Z,100333.47
2022-11-03T18:04:59.130Z,100328.28
2022-11-03T18:07:27.210Z,100325.72
2022-11-03T18:09:53.863Z,100321.38
2022-11-03T18:12:50.733Z,100317.09
2022-11-03T18:15:19.805Z,100304.09
2022-11-03T18:17:46.624Z,100309.28
2022-11-03T18:20:20.023Z,100302.41
2022-11-03T18:22:46.532Z,100293.75
2022-11-03T18:25:17.817Z,100299.75
2022-11-03T18:27:44.717Z,100290.31
2022-11-03T18:30:16.730Z,100279.03
2022-11-03T18:32:48.222Z,100273.03
2022-11-03T18:35:27.204Z,100274.72
2022-11-03T18:37:53.560Z,100268.66
2022-11-03T18:40:20.447Z,100266.06
2022-11-03T18:42:46.883Z,100256.53
2022-11-03T18:45:15.877Z,100263.41
2022-11-03T18:47:43.273Z,100259.13
2022-11-03T18:50:17.739Z,100264.28
2022-11-03T18:52:47.949Z,100265.19
2022-11-03T18:55:16.888Z,100259.06
2022-11-03T18:57:44.319Z,100261.59
2022-11-03T19:00:16.803Z,100252.13
2022-11-03T19:02:43.263Z,100252.09
2022-11-03T19:05:13.790Z,100248.72
2022-11-03T19:07:42.482Z,100243.47
2022-11-03T19:10:14.760Z,100244.31
2022-11-03T19:12:43.787Z,100233.91
2022-11-03T19:15:22.609Z,100226.09
2022-11-03T19:17:56.347Z,100215.97
2022-11-03T19:20:24.003Z,100229.69
2022-11-03T19:22:50.362Z,100226.19
2022-11-03T19:25:18.573Z,100219.25
2022-11-03T19:27:47.586Z,100225.34
2022-11-03T19:30:17.408Z,100219.28
2022-11-03T19:32:51.278Z,100215.78
2022-11-03T19:35:23.816Z,100215.84
2022-11-03T19:37:59.782Z,100214.09
2022-11-03T19:40:26.137Z,100202.84
2022-11-03T19:42:53.156Z,100196.75
2022-11-03T19:45:20.701Z,100193.38
2022-11-03T19:50:47.206Z,100186.41
2022-11-03T19:53:22.286Z,100188.16
2022-11-03T19:55:49.275Z,100182.97
2022-11-03T19:58:26.946Z,100174.38
2022-11-03T20:00:54.235Z,100172.59
2022-11-03T20:03:22.461Z,100167.50
2022-11-03T20:05:52.292Z,100161.47
2022-11-03T20:08:22.178Z,100159.69
2022-11-03T20:10:48.761Z,100154.50
2022-11-03T20:13:18.014Z,100159.69
2022-11-03T20:15:44.348Z,100151.94
2022-11-03T20:18:14.847Z,100155.41
2022-11-03T20:20:43.351Z,100154.56
2022-11-03T20:23:23.578Z,100152.78
2022-11-03T20:25:50.106Z,100142.38
2022-11-03T20:28:19.700Z,100145.84
2022-11-03T20:30:46.775Z,100144.94
2022-11-03T20:33:16.064Z,100138.06
2022-11-03T20:35:44.082Z,100137.22
2022-11-03T20:38:12.381Z,100139.78
2022-11-03T20:40:39.827Z,100137.97
2022-11-03T20:43:07.386Z,100134.63
2022-11-03T20:45:34.160Z,100131.16
2022-11-03T20:48:00.519Z,100137.22
2022-11-03T20:50:30.610Z,100132.03
2022-11-03T20:52:59.481Z,100134.59
2022-11-03T20:55:27.456Z,100125.19
2022-11-03T20:57:54.419Z,100116.63
2022-11-03T21:00:27.043Z,100118.25
2022-11-03T21:02:55.210Z,100107.09
2022-11-03T21:05:27.369Z,100107.13
2022-11-03T21:07:55.181Z,100096.81
2022-11-03T21:10:23.577Z,100095.06
2022-11-03T21:12:51.924Z,100094.22
2022-11-03T21:16:03.654Z,100087.28
2022-11-03T21:18:48.129Z,100085.59
2022-11-03T21:21:20.515Z,100093.34
2022-11-03T21:23:47.455Z,100093.38
2022-11-03T21:26:13.885Z,100097.63
2022-11-03T21:28:40.207Z,100096.81
2022-11-03T21:31:13.080Z,100096.78
2022-11-03T21:33:39.393Z,100093.41
2022-11-03T21:36:06.126Z,100089.97
2022-11-03T21:38:32.453Z,100090.84
2022-11-03T21:41:18.768Z,100089.09
2022-11-03T21:44:03.511Z,100077.91
2022-11-03T21:46:29.928Z,100078.72
2022-11-03T21:49:14.572Z,100064.97
2022-11-03T21:51:40.917Z,100062.34
2022-11-03T21:54:07.355Z,100068.38
2022-11-03T21:56:33.767Z,100066.63
2022-11-03T21:59:00.129Z,100054.59
2022-11-03T22:01:26.673Z,100063.22
2022-11-03T22:03:55.519Z,100076.16
2022-11-03T22:06:22.115Z,100073.53
2022-11-03T22:08:48.443Z,100064.03
2022-11-03T22:11:23.639Z,100059.75
2022-11-03T22:13:57.321Z,100067.47
2022-11-03T22:16:36.798Z,100066.63
2022-11-03T22:19:28.382Z,100070.09
2022-11-03T22:22:13.137Z,100066.63
2022-11-03T22:24:58.981Z,100065.75
2022-11-03T22:27:26.569Z,100063.16
2022-11-03T22:30:11.511Z,100057.16
2022-11-03T22:32:38.497Z,100064.00
2022-11-03T22:35:25.106Z,100068.31
2022-11-03T22:38:05.269Z,100071.72
2022-11-03T22:40:50.945Z,100067.47
2022-11-03T22:43:36.159Z,100063.09
2022-11-03T22:46:02.923Z,100074.28
2022-11-03T22:48:29.937Z,100067.41
2022-11-03T22:50:57.344Z,100057.94
2022-11-03T22:53:42.551Z,100069.09
2022-11-03T22:56:09.159Z,100069.97
2022-11-03T22:58:35.636Z,100056.19
2022-11-03T23:01:13.517Z,100056.19
2022-11-03T23:03:41.449Z,100055.28
2022-11-03T23:06:13.313Z,100051.03
2022-11-03T23:08:41.202Z,100046.69
2022-11-03T23:11:15.937Z,100044.13
2022-11-03T23:13:46.921Z,100035.47
2022-11-03T23:16:16.536Z,100025.19
2022-11-03T23:19:02.161Z,100026.03
2022-11-03T23:21:29.783Z,100015.69
2022-11-03T23:24:15.595Z,100012.25
2022-11-03T23:26:42.763Z,100016.59
2022-11-03T23:29:10.227Z,100013.09
2022-11-03T23:31:37.320Z,100006.25
2022-11-03T23:34:04.890Z,100004.50
2022-11-03T23:36:31.700Z,99998.47
2022-11-03T23:38:59.474Z,99988.97
2022-11-03T23:41:27.694Z,99986.44
2022-11-03T23:43:54.859Z,99988.16
2022-11-03T23:46:45.226Z,99983.03
2022-11-03T23:49:12.278Z,99989.84
2022-11-03T23:51:39.463Z,99992.44
2022-11-03T23:54:08.557Z,99987.31
2022-11-03T23:56:58.927Z,99989.94
2022-11-03T23:59:26.020Z,99982.16
